Time;durP1;ratioP1;P1;durP2;ratioP2;P2;SDS_P1;SDS_P2;PMS_P1;PMS_P2;Temp;Humidity;BMP_temperature;BMP_pressure;BME280_temperature;BME280_humidity;BME280_pressure;Samples;Min_cycle;Max_cycle;Signal;HPM_P1;HPM_P2
2021/11/18 00:00:28;;;;;;;13.00;9.30;;;;;;;;;;5029208;28;20040;-77
2021/11/18 00:02:54;;;;;;;13.25;9.07;;;;;;;;;;5028763;28;20109;-78
2021/11/18 00:05:22;;;;;;;13.13;9.18;;;;;;;;;;5029371;28;20391;-78
2021/11/18 00:07:49;;;;;;;17.42;9.18;;;;;;;;;;5028998;28;20036;-78
2021/11/18 00:10:17;;;;;;;15.95;10.77;;;;;;;;;;5029679;28;20732;-77
2021/11/18 00:12:45;;;;;;;12.95;8.48;;;;;;;;;;5029106;28;20478;-78
2021/11/18 00:15:11;;;;;;;15.07;9.63;;;;;;;;;;5029104;28;20033;-77
2021/11/18 00:17:37;;;;;;;12.85;8.63;;;;;;;;;;5029563;28;20443;-78
2021/11/18 00:20:05;;;;;;;14.63;8.70;;;;;;;;;;5028787;28;20096;-78
2021/11/18 00:22:31;;;;;;;13.98;8.38;;;;;;;;;;5029560;28;20620;-78
2021/11/18 00:24:57;;;;;;;13.55;8.57;;;;;;;;;;5028992;28;20789;-78
2021/11/18 00:27:23;;;;;;;12.30;8.75;;;;;;;;;;5029434;28;20041;-78
2021/11/18 00:29:50;;;;;;;13.52;9.10;;;;;;;;;;5028759;28;20037;-78
2021/11/18 00:32:16;;;;;;;14.10;8.57;;;;;;;;;;5029455;28;20037;-78
2021/11/18 00:34:42;;;;;;;14.68;8.98;;;;;;;;;;5029011;28;20701;-78
2021/11/18 00:37:09;;;;;;;13.13;8.88;;;;;;;;;;5031638;28;20033;-78
2021/11/18 00:39:35;;;;;;;11.68;7.80;;;;;;;;;;5032985;28;20033;-78
2021/11/18 00:42:01;;;;;;;12.30;8.50;;;;;;;;;;5033120;28;20107;-78
2021/11/18 00:44:27;;;;;;;12.95;8.25;;;;;;;;;;5032428;28;20034;-78
2021/11/18 00:46:54;;;;;;;11.25;7.53;;;;;;;;;;5032927;28;20036;-78
2021/11/18 00:49:21;;;;;;;12.00;8.02;;;;;;;;;;5033011;28;20029;-78
2021/11/18 00:51:47;;;;;;;10.52;6.80;;;;;;;;;;5020177;28;20488;-78
2021/11/18 00:54:15;;;;;;;13.35;7.65;;;;;;;;;;5033042;28;20041;-77
2021/11/18 00:56:41;;;;;;;10.02;6.75;;;;;;;;;;5032327;28;20041;-78
2021/11/18 00:59:07;;;;;;;11.50;6.78;;;;;;;;;;5033157;28;20037;-78
2021/11/18 01:01:40;;;;;;;11.35;7.22;;;;;;;;;;5031878;28;20111;-78
2021/11/18 01:04:06;;;;;;;14.00;8.23;;;;;;;;;;5032810;28;20032;-78
2021/11/18 01:06:32;;;;;;;11.05;7.75;;;;;;;;;;5032120;28;20129;-78
2021/11/18 01:08:58;;;;;;;17.33;8.95;;;;;;;;;;5032596;28;20036;-78
2021/11/18 01:11:26;;;;;;;12.48;7.78;;;;;;;;;;5032088;28;20670;-78
2021/11/18 01:13:53;;;;;;;10.55;7.35;;;;;;;;;;5040894;28;20043;-78
2021/11/18 01:16:22;;;;;;;12.70;7.93;;;;;;;;;;5040316;28;20042;-77
2021/11/18 01:18:48;;;;;;;12.80;7.10;;;;;;;;;;5042453;28;20045;-78
2021/11/18 01:21:15;;;;;;;11.15;7.43;;;;;;;;;;5047906;28;20505;-78
2021/11/18 01:23:42;;;;;;;9.73;6.82;;;;;;;;;;5040248;28;20418;-78
2021/11/18 01:26:10;;;;;;;11.40;6.15;;;;;;;;;;5023355;28;20044;-78
2021/11/18 01:28:36;;;;;;;10.80;7.55;;;;;;;;;;5052087;28;20370;-78
2021/11/18 01:31:02;;;;;;;11.73;7.35;;;;;;;;;;5048905;28;21144;-78
2021/11/18 01:33:29;;;;;;;10.02;7.30;;;;;;;;;;5031383;28;20026;-78
2021/11/18 01:35:56;;;;;;;10.57;6.68;;;;;;;;;;5032101;28;20094;-78
2021/11/18 01:38:23;;;;;;;11.07;7.25;;;;;;;;;;5036392;28;20025;-78
2021/11/18 01:40:54;;;;;;;10.02;6.97;;;;;;;;;;5040948;28;20475;-78
2021/11/18 01:43:21;;;;;;;12.10;6.90;;;;;;;;;;5044469;28;20095;-78
2021/11/18 01:45:47;;;;;;;10.32;6.90;;;;;;;;;;5031817;28;20040;-78
2021/11/18 01:48:13;;;;;;;11.65;6.68;;;;;;;;;;5034783;28;20362;-77
2021/11/18 01:50:41;;;;;;;12.02;7.38;;;;;;;;;;5051369;28;20045;-78
2021/11/18 01:53:10;;;;;;;10.73;7.03;;;;;;;;;;5048941;28;20029;-78
2021/11/18 01:55:37;;;;;;;13.15;7.55;;;;;;;;;;5031611;28;20048;-78
2021/11/18 01:58:03;;;;;;;11.55;6.72;;;;;;;;;;5031416;28;20385;-78
2021/11/18 02:00:31;;;;;;;9.48;6.65;;;;;;;;;;5018244;28;20149;-77
2021/11/18 02:02:57;;;;;;;10.07;6.47;;;;;;;;;;5039631;28;20033;-77
2021/11/18 02:05:28;;;;;;;12.55;6.97;;;;;;;;;;5030737;28;20387;-77
2021/11/18 02:07:55;;;;;;;10.52;7.10;;;;;;;;;;5031328;28;20029;-78
2021/11/18 02:10:28;;;;;;;12.85;8.10;;;;;;;;;;5031054;28;20383;-78
2021/11/18 02:12:55;;;;;;;11.85;8.00;;;;;;;;;;5031689;28;20021;-78
2021/11/18 02:15:31;;;;;;;12.68;8.23;;;;;;;;;;5030704;28;20067;-77
2021/11/18 02:17:58;;;;;;;13.38;8.10;;;;;;;;;;5031030;28;20041;-78
2021/11/18 02:20:34;;;;;;;11.43;7.65;;;;;;;;;;5030292;28;20379;-78
2021/11/18 02:23:01;;;;;;;12.68;8.15;;;;;;;;;;5031062;28;20058;-78
2021/11/18 02:25:31;;;;;;;12.25;8.07;;;;;;;;;;5030142;28;20406;-78
2021/11/18 02:27:58;;;;;;;14.07;9.20;;;;;;;;;;5031044;28;20057;-78
2021/11/18 02:30:26;;;;;;;12.55;8.00;;;;;;;;;;5030708;28;20037;-78
2021/11/18 02:32:52;;;;;;;11.15;7.45;;;;;;;;;;5030943;28;20609;-78
2021/11/18 02:35:23;;;;;;;11.35;8.20;;;;;;;;;;5030105;28;20041;-77
2021/11/18 02:37:50;;;;;;;12.88;8.32;;;;;;;;;;5031031;28;20401;-77
2021/11/18 02:40:16;;;;;;;14.73;9.25;;;;;;;;;;5029981;28;20124;-78
2021/11/18 02:42:43;;;;;;;13.18;9.05;;;;;;;;;;5030729;28;20029;-78
2021/11/18 02:45:15;;;;;;;14.02;9.20;;;;;;;;;;5030250;28;20506;-78
2021/11/18 02:47:41;;;;;;;13.60;8.63;;;;;;;;;;5030782;28;20029;-77
2021/11/18 02:50:08;;;;;;;10.93;7.38;;;;;;;;;;5030259;28;20064;-78
2021/11/18 02:52:35;;;;;;;12.43;7.47;;;;;;;;;;5030577;28;20021;-78
2021/11/18 02:55:04;;;;;;;12.00;7.57;;;;;;;;;;5032694;28;20042;-78
2021/11/18 02:57:30;;;;;;;14.90;9.18;;;;;;;;;;5035576;28;20033;-77
2021/11/18 02:59:56;;;;;;;13.48;9.25;;;;;;;;;;5037205;28;20074;-78
2021/11/18 03:02:24;;;;;;;13.73;9.85;;;;;;;;;;5030245;28;20160;-77
2021/11/18 03:04:50;;;;;;;13.45;9.27;;;;;;;;;;5029956;28;20033;-77
2021/11/18 03:07:16;;;;;;;18.25;10.00;;;;;;;;;;5030034;28;20395;-77
2021/11/18 03:09:42;;;;;;;14.18;9.77;;;;;;;;;;5030744;28;20029;-78
2021/11/18 03:12:08;;;;;;;12.13;7.00;;;;;;;;;;5029779;28;20056;-77
2021/11/18 03:14:34;;;;;;;17.13;8.93;;;;;;;;;;5045619;28;20381;-78
2021/11/18 03:17:01;;;;;;;11.05;6.68;;;;;;;;;;5034827;28;20048;-78
2021/11/18 03:19:27;;;;;;;11.57;6.40;;;;;;;;;;5029896;28;20049;-78
2021/11/18 03:21:54;;;;;;;12.13;6.95;;;;;;;;;;5029282;28;20791;-78
2021/11/18 03:24:20;;;;;;;10.45;6.35;;;;;;;;;;5035562;28;20052;-77
2021/11/18 03:26:46;;;;;;;11.00;6.03;;;;;;;;;;5032926;28;20033;-78
2021/11/18 03:29:12;;;;;;;11.52;6.50;;;;;;;;;;5045756;28;20039;-78
2021/11/18 03:31:38;;;;;;;7.97;5.20;;;;;;;;;;5037393;28;20399;-77
2021/11/18 03:34:06;;;;;;;10.65;5.55;;;;;;;;;;5049612;28;20405;-77
2021/11/18 03:36:32;;;;;;;10.45;5.65;;;;;;;;;;5039648;28;20041;-77
2021/11/18 03:38:59;;;;;;;9.00;5.70;;;;;;;;;;5037228;28;20774;-77
2021/11/18 03:41:26;;;;;;;8.10;5.55;;;;;;;;;;5037618;28;20733;-78
2021/11/18 03:43:54;;;;;;;9.18;5.90;;;;;;;;;;5039467;28;20033;-77
2021/11/18 03:46:23;;;;;;;9.35;6.45;;;;;;;;;;5041040;28;20025;-77
2021/11/18 03:48:49;;;;;;;8.40;5.32;;;;;;;;;;5036575;28;20037;-77
2021/11/18 03:51:15;;;;;;;9.65;5.97;;;;;;;;;;5036527;28;20455;-78
2021/11/18 03:53:42;;;;;;;9.57;5.40;;;;;;;;;;5029369;28;20107;-78
2021/11/18 03:56:11;;;;;;;12.95;7.47;;;;;;;;;;5029615;28;20044;-77
2021/11/18 03:58:37;;;;;;;12.52;6.75;;;;;;;;;;5028916;28;20112;-77
2021/11/18 04:01:03;;;;;;;14.23;7.97;;;;;;;;;;5046086;28;20084;-77
2021/11/18 04:03:29;;;;;;;15.27;7.78;;;;;;;;;;5030268;28;20048;-77
2021/11/18 04:05:56;;;;;;;11.27;5.78;;;;;;;;;;5039392;28;20044;-77
2021/11/18 04:08:23;;;;;;;10.02;6.35;;;;;;;;;;5038239;28;20522;-77
2021/11/18 04:10:49;;;;;;;10.80;6.45;;;;;;;;;;5038839;28;20037;-77
2021/11/18 04:13:15;;;;;;;8.82;5.03;;;;;;;;;;5040248;28;20033;-77
2021/11/18 04:15:43;;;;;;;8.77;5.60;;;;;;;;;;5033648;28;20468;-77
2021/11/18 04:18:09;;;;;;;10.60;6.05;;;;;;;;;;5032659;28;20035;-77
2021/11/18 04:20:36;;;;;;;9.00;5.38;;;;;;;;;;5033265;28;20034;-77
2021/11/18 04:23:03;;;;;;;9.77;6.18;;;;;;;;;;5036118;28;20040;-77
2021/11/18 04:25:30;;;;;;;9.32;5.82;;;;;;;;;;5053016;28;20486;-77
2021/11/18 04:27:57;;;;;;;8.70;5.90;;;;;;;;;;5034178;28;20033;-77
2021/11/18 04:30:26;;;;;;;8.80;5.57;;;;;;;;;;5032994;28;20038;-77
2021/11/18 04:32:52;;;;;;;9.38;6.20;;;;;;;;;;5032685;28;20471;-78
2021/11/18 04:35:18;;;;;;;11.05;5.95;;;;;;;;;;5033167;28;20041;-78
2021/11/18 04:37:44;;;;;;;10.38;6.32;;;;;;;;;;5032949;28;20033;-78
2021/11/18 04:40:11;;;;;;;9.60;5.85;;;;;;;;;;5032973;28;20100;-77
2021/11/18 04:42:39;;;;;;;10.35;6.45;;;;;;;;;;5032811;28;20069;-77
2021/11/18 04:45:06;;;;;;;9.70;6.03;;;;;;;;;;5032558;28;20422;-78
2021/11/18 04:47:32;;;;;;;8.68;5.35;;;;;;;;;;5033046;28;20029;-77
2021/11/18 04:49:58;;;;;;;9.80;6.20;;;;;;;;;;5031179;28;20025;-78
2021/11/18 04:52:24;;;;;;;10.40;6.55;;;;;;;;;;5032578;28;20041;-78
2021/11/18 04:54:50;;;;;;;10.15;6.78;;;;;;;;;;5032284;28;20033;-77
2021/11/18 04:57:16;;;;;;;10.45;6.85;;;;;;;;;;5032489;28;20076;-77
2021/11/18 04:59:42;;;;;;;12.07;6.40;;;;;;;;;;5032207;28;20033;-78
2021/11/18 05:02:09;;;;;;;11.85;6.57;;;;;;;;;;5032567;28;20034;-78
2021/11/18 05:04:35;;;;;;;10.00;6.68;;;;;;;;;;5032123;28;20391;-77
2021/11/18 05:07:01;;;;;;;8.77;5.07;;;;;;;;;;5032703;28;20083;-77
2021/11/18 05:09:27;;;;;;;11.13;5.88;;;;;;;;;;5032043;28;20096;-78
2021/11/18 05:11:53;;;;;;;10.15;6.28;;;;;;;;;;5032409;28;20116;-77
2021/11/18 05:14:20;;;;;;;14.30;6.93;;;;;;;;;;5032252;28;20080;-77
2021/11/18 05:16:46;;;;;;;11.32;7.18;;;;;;;;;;5032875;28;20037;-77
2021/11/18 05:19:12;;;;;;;11.32;6.55;;;;;;;;;;5032336;28;20052;-77
2021/11/18 05:21:41;;;;;;;10.40;6.78;;;;;;;;;;5051475;28;20037;-77
2021/11/18 05:24:07;;;;;;;10.25;6.95;;;;;;;;;;5052134;28;20056;-77
2021/11/18 05:26:33;;;;;;;14.45;7.20;;;;;;;;;;5032351;28;20069;-78
2021/11/18 05:28:59;;;;;;;10.98;7.22;;;;;;;;;;5032406;28;20061;-78
2021/11/18 05:31:30;;;;;;;10.13;6.18;;;;;;;;;;5032265;28;20456;-78
2021/11/18 05:33:57;;;;;;;10.25;6.50;;;;;;;;;;5032506;28;20029;-77
2021/11/18 05:36:23;;;;;;;10.52;6.70;;;;;;;;;;5032133;28;20130;-77
2021/11/18 05:38:49;;;;;;;10.73;5.95;;;;;;;;;;5040639;28;20110;-78
2021/11/18 05:41:16;;;;;;;10.32;5.88;;;;;;;;;;5034129;28;20045;-77
2021/11/18 05:43:43;;;;;;;13.48;6.88;;;;;;;;;;5040333;28;20040;-77
2021/11/18 05:46:10;;;;;;;11.95;6.53;;;;;;;;;;5023425;28;20033;-78
2021/11/18 05:48:37;;;;;;;10.50;6.18;;;;;;;;;;5034975;28;20455;-78
2021/11/18 05:51:03;;;;;;;9.98;6.10;;;;;;;;;;5044451;28;20105;-78
2021/11/18 05:53:34;;;;;;;10.73;6.63;;;;;;;;;;5031801;28;20034;-78
2021/11/18 05:56:02;;;;;;;13.63;7.85;;;;;;;;;;5031730;28;20104;-77
2021/11/18 05:58:28;;;;;;;12.15;7.18;;;;;;;;;;5031249;28;20060;-78
2021/11/18 06:00:55;;;;;;;12.32;7.32;;;;;;;;;;5036576;28;20072;-78
2021/11/18 06:03:21;;;;;;;12.02;8.10;;;;;;;;;;5051422;28;20074;-78
2021/11/18 06:05:47;;;;;;;11.75;7.75;;;;;;;;;;5047589;28;20120;-77
2021/11/18 06:08:13;;;;;;;11.63;7.55;;;;;;;;;;5028340;28;20117;-77
2021/11/18 06:10:39;;;;;;;10.63;7.32;;;;;;;;;;5011241;28;20081;-78
2021/11/18 06:13:06;;;;;;;13.13;7.63;;;;;;;;;;5011349;28;20026;-78
2021/11/18 06:15:32;;;;;;;12.82;6.97;;;;;;;;;;5027485;28;20055;-78
2021/11/18 06:17:59;;;;;;;12.73;6.95;;;;;;;;;;5034094;28;20108;-77
2021/11/18 06:20:26;;;;;;;14.23;7.93;;;;;;;;;;5030781;28;20049;-78
2021/11/18 06:22:53;;;;;;;12.60;8.27;;;;;;;;;;5028741;28;20034;-77
2021/11/18 06:25:21;;;;;;;11.35;7.00;;;;;;;;;;5026515;28;20094;-77
2021/11/18 06:27:48;;;;;;;11.55;7.25;;;;;;;;;;5021416;28;20522;-77
2021/11/18 06:30:17;;;;;;;13.05;6.75;;;;;;;;;;5015480;28;20619;-78
2021/11/18 06:32:43;;;;;;;13.10;8.15;;;;;;;;;;5029724;28;20032;-77
2021/11/18 06:35:10;;;;;;;12.55;7.53;;;;;;;;;;5029335;28;20049;-77
2021/11/18 06:37:36;;;;;;;13.57;7.10;;;;;;;;;;5029682;28;20130;-78
2021/11/18 06:40:02;;;;;;;10.68;6.57;;;;;;;;;;5029712;28;20131;-77
2021/11/18 06:42:29;;;;;;;10.18;6.70;;;;;;;;;;5029167;28;20036;-76
2021/11/18 06:44:56;;;;;;;12.30;6.63;;;;;;;;;;5025066;28;20483;-76
2021/11/18 06:47:22;;;;;;;12.88;7.70;;;;;;;;;;5033176;28;20052;-76
2021/11/18 06:49:47;;;;;;;10.23;6.65;;;;;;;;;;5032757;28;20033;-77
2021/11/18 06:52:16;;;;;;;13.63;7.85;;;;;;;;;;5029677;28;20029;-77
2021/11/18 06:54:42;;;;;;;13.90;8.40;;;;;;;;;;5027840;28;20603;-76
2021/11/18 06:57:09;;;;;;;13.82;7.93;;;;;;;;;;5020553;28;20069;-77
2021/11/18 06:59:35;;;;;;;13.18;8.05;;;;;;;;;;5029203;28;20029;-77
2021/11/18 07:02:02;;;;;;;11.00;7.22;;;;;;;;;;5034470;28;20029;-77
2021/11/18 07:04:28;;;;;;;11.50;7.72;;;;;;;;;;5028964;28;20033;-77
2021/11/18 07:06:54;;;;;;;12.38;7.72;;;;;;;;;;5031761;28;20029;-77
2021/11/18 07:09:20;;;;;;;13.63;7.93;;;;;;;;;;5024383;28;20053;-76
2021/11/18 07:11:46;;;;;;;12.85;6.30;;;;;;;;;;5035844;28;20036;-77
2021/11/18 07:14:12;;;;;;;12.88;6.80;;;;;;;;;;5035871;28;20038;-77
2021/11/18 07:16:38;;;;;;;13.60;7.05;;;;;;;;;;5048116;28;20035;-77
2021/11/18 07:19:05;;;;;;;12.18;7.00;;;;;;;;;;5033663;28;20080;-76
2021/11/18 07:21:32;;;;;;;12.02;7.40;;;;;;;;;;5044688;28;20033;-76
2021/11/18 07:23:59;;;;;;;13.82;7.85;;;;;;;;;;5041564;28;20048;-76
2021/11/18 07:26:26;;;;;;;15.23;9.15;;;;;;;;;;5035301;28;20070;-77
2021/11/18 07:28:52;;;;;;;13.98;7.72;;;;;;;;;;5026964;28;20037;-77
2021/11/18 07:31:18;;;;;;;16.73;8.10;;;;;;;;;;5031245;28;20033;-77
2021/11/18 07:33:44;;;;;;;13.52;8.10;;;;;;;;;;5029815;28;20034;-76
2021/11/18 07:36:11;;;;;;;14.70;8.50;;;;;;;;;;5027847;28;20086;-76
2021/11/18 07:38:37;;;;;;;14.23;7.78;;;;;;;;;;5031615;28;20029;-76
2021/11/18 07:41:04;;;;;;;18.10;7.57;;;;;;;;;;5036532;28;20558;-76
2021/11/18 07:43:34;;;;;;;14.40;8.30;;;;;;;;;;5030006;28;20045;-76
2021/11/18 07:46:01;;;;;;;12.38;7.85;;;;;;;;;;5027225;28;20044;-77
2021/11/18 07:48:28;;;;;;;17.90;8.10;;;;;;;;;;5032130;28;20664;-76
2021/11/18 07:50:54;;;;;;;13.27;7.72;;;;;;;;;;5030611;28;20435;-76
2021/11/18 07:53:20;;;;;;;13.30;8.48;;;;;;;;;;5029592;28;20813;-76
2021/11/18 07:55:47;;;;;;;16.23;9.30;;;;;;;;;;5029358;28;20083;-76
2021/11/18 07:58:13;;;;;;;14.90;9.35;;;;;;;;;;5028996;28;20037;-76
2021/11/18 08:00:42;;;;;;;18.05;9.93;;;;;;;;;;5029320;28;20037;-76
2021/11/18 08:03:09;;;;;;;14.38;9.52;;;;;;;;;;5028595;28;20056;-76
2021/11/18 08:05:35;;;;;;;14.52;9.50;;;;;;;;;;5029259;28;20034;-77
2021/11/18 08:08:02;;;;;;;14.38;8.88;;;;;;;;;;5033150;28;20030;-76
2021/11/18 08:10:28;;;;;;;14.73;8.73;;;;;;;;;;5043330;28;20025;-77
2021/11/18 08:12:54;;;;;;;13.45;8.25;;;;;;;;;;5045752;28;20037;-77
2021/11/18 08:15:20;;;;;;;14.50;8.20;;;;;;;;;;5031765;28;20041;-76
2021/11/18 08:17:46;;;;;;;16.00;9.88;;;;;;;;;;5028620;28;20052;-76
2021/11/18 08:20:14;;;;;;;16.83;8.85;;;;;;;;;;5042283;28;20053;-76
2021/11/18 08:22:40;;;;;;;16.40;9.07;;;;;;;;;;5032336;28;20538;-76
2021/11/18 08:25:07;;;;;;;15.35;9.00;;;;;;;;;;5028317;28;20046;-76
2021/11/18 08:27:33;;;;;;;17.67;8.75;;;;;;;;;;5031245;28;20029;-77
2021/11/18 08:30:00;;;;;;;20.00;9.32;;;;;;;;;;5029006;28;20479;-76
2021/11/18 08:32:26;;;;;;;16.70;9.50;;;;;;;;;;5029040;28;20038;-76
2021/11/18 08:34:52;;;;;;;17.35;9.63;;;;;;;;;;5028887;28;20033;-77
2021/11/18 08:37:19;;;;;;;13.50;8.50;;;;;;;;;;5029226;28;20047;-76
2021/11/18 08:39:46;;;;;;;17.33;8.40;;;;;;;;;;5028856;28;20172;-76
2021/11/18 08:42:14;;;;;;;15.45;8.00;;;;;;;;;;5029347;28;20427;-77
2021/11/18 08:44:40;;;;;;;14.32;9.23;;;;;;;;;;5028867;28;20034;-77
2021/11/18 08:47:07;;;;;;;17.05;9.00;;;;;;;;;;5027012;28;20483;-77
2021/11/18 08:49:33;;;;;;;12.57;7.78;;;;;;;;;;5030106;28;20025;-76
2021/11/18 08:52:08;;;;;;;15.25;8.85;;;;;;;;;;5037056;28;20052;-77
2021/11/18 08:54:35;;;;;;;13.60;7.82;;;;;;;;;;5029295;28;20036;-76
2021/11/18 08:57:01;;;;;;;15.25;7.30;;;;;;;;;;5029051;28;20116;-76
2021/11/18 08:59:28;;;;;;;14.70;8.68;;;;;;;;;;5032914;28;20029;-76
2021/11/18 09:01:59;;;;;;;18.15;8.57;;;;;;;;;;5036175;28;20835;-76
2021/11/18 09:04:26;;;;;;;15.63;8.80;;;;;;;;;;5020311;28;20029;-77
2021/11/18 09:06:53;;;;;;;16.13;9.02;;;;;;;;;;5024526;28;20425;-76
2021/11/18 09:09:21;;;;;;;13.32;8.93;;;;;;;;;;5032238;28;20113;-77
2021/11/18 09:11:47;;;;;;;19.40;8.73;;;;;;;;;;5031790;28;20029;-77
2021/11/18 09:14:17;;;;;;;12.82;8.18;;;;;;;;;;5037125;28;20051;-77
2021/11/18 09:16:43;;;;;;;14.57;9.23;;;;;;;;;;5032635;28;20072;-77
2021/11/18 09:19:12;;;;;;;15.88;9.32;;;;;;;;;;5042619;28;20057;-76
2021/11/18 09:21:39;;;;;;;13.38;8.55;;;;;;;;;;5033276;28;20038;-77
2021/11/18 09:24:08;;;;;;;13.93;8.18;;;;;;;;;;5032011;28;20057;-77
2021/11/18 09:26:35;;;;;;;17.77;9.10;;;;;;;;;;5030826;28;20105;-77
2021/11/18 09:29:01;;;;;;;14.25;7.97;;;;;;;;;;5034365;28;20029;-77
2021/11/18 09:31:28;;;;;;;15.70;8.40;;;;;;;;;;5039938;28;20041;-77
2021/11/18 09:33:55;;;;;;;21.23;8.85;;;;;;;;;;5044590;28;20613;-76
2021/11/18 09:36:22;;;;;;;12.93;8.13;;;;;;;;;;5042635;28;20501;-76
2021/11/18 09:38:49;;;;;;;14.02;8.30;;;;;;;;;;5033744;28;20029;-77
2021/11/18 09:41:27;;;;;;;15.75;9.32;;;;;;;;;;5031093;28;20120;-76
2021/11/18 09:43:59;;;;;;;18.45;8.48;;;;;;;;;;5012353;28;20034;-76
2021/11/18 09:46:38;;;;;;;14.30;8.75;;;;;;;;;;5027634;28;20044;-76
2021/11/18 09:49:19;;;;;;;16.00;9.38;;;;;;;;;;5017892;28;20048;-76
2021/11/18 09:51:57;;;;;;;14.10;8.45;;;;;;;;;;5030803;28;20040;-76
2021/11/18 09:54:29;;;;;;;15.50;8.10;;;;;;;;;;5040619;28;20044;-76
2021/11/18 09:57:09;;;;;;;21.85;9.60;;;;;;;;;;5031659;28;20068;-76
2021/11/18 09:59:38;;;;;;;16.83;9.00;;;;;;;;;;5033617;28;20064;-77
2021/11/18 10:02:29;;;;;;;22.00;8.75;;;;;;;;;;5035728;28;20052;-76
2021/11/18 10:04:56;;;;;;;15.50;8.40;;;;;;;;;;5035686;28;20136;-76
2021/11/18 10:07:26;;;;;;;15.23;8.35;;;;;;;;;;5030400;28;20088;-76
2021/11/18 10:10:04;;;;;;;17.65;8.93;;;;;;;;;;5024634;28;20034;-77
2021/11/18 10:12:39;;;;;;;15.35;8.65;;;;;;;;;;5034312;28;20041;-77
2021/11/18 10:15:07;;;;;;;13.27;8.38;;;;;;;;;;5033826;28;20047;-76
2021/11/18 10:17:39;;;;;;;14.88;8.82;;;;;;;;;;5045640;28;20114;-76
2021/11/18 10:20:04;;;;;;;15.80;8.52;;;;;;;;;;5030737;28;20530;-77
2021/11/18 10:22:32;;;;;;;13.23;8.13;;;;;;;;;;5029902;28;20033;-76
2021/11/18 10:24:59;;;;;;;17.05;8.70;;;;;;;;;;5030441;28;20052;-77
2021/11/18 10:27:31;;;;;;;16.95;8.80;;;;;;;;;;5039111;28;20033;-77
2021/11/18 10:30:06;;;;;;;20.17;10.45;;;;;;;;;;5020038;28;20040;-76
2021/11/18 10:32:42;;;;;;;16.02;8.07;;;;;;;;;;5048049;28;20033;-77
2021/11/18 10:35:40;;;;;;;18.38;8.60;;;;;;;;;;5032816;28;20044;-76
2021/11/18 10:38:21;;;;;;;10.50;7.10;;;;;;;;;;5011163;28;20549;-77
2021/11/18 10:40:56;;;;;;;17.73;9.07;;;;;;;;;;5037231;28;20029;-77
2021/11/18 10:43:23;;;;;;;15.10;8.65;;;;;;;;;;5030829;28;20043;-77
2021/11/18 10:45:51;;;;;;;20.27;9.25;;;;;;;;;;5035411;28;20783;-76
2021/11/18 10:48:28;;;;;;;13.13;8.05;;;;;;;;;;5022021;28;20109;-76
2021/11/18 10:51:00;;;;;;;16.27;8.50;;;;;;;;;;5021903;28;20076;-76
2021/11/18 10:53:27;;;;;;;14.75;8.40;;;;;;;;;;5030089;28;20032;-76
2021/11/18 10:56:05;;;;;;;12.70;8.13;;;;;;;;;;5021776;28;20072;-76
2021/11/18 10:58:44;;;;;;;11.82;7.40;;;;;;;;;;5030925;28;20030;-77
2021/11/18 11:01:16;;;;;;;15.45;8.48;;;;;;;;;;5026215;28;20037;-76
2021/11/18 11:03:43;;;;;;;15.23;8.23;;;;;;;;;;5038858;28;20079;-76
2021/11/18 11:06:26;;;;;;;16.35;9.10;;;;;;;;;;5029816;28;20485;-76
2021/11/18 11:08:55;;;;;;;16.00;9.85;;;;;;;;;;5031881;28;20053;-77
2021/11/18 11:11:39;;;;;;;13.57;8.07;;;;;;;;;;5038020;28;20025;-76
2021/11/18 11:14:17;;;;;;;14.50;8.18;;;;;;;;;;5042494;28;20470;-76
2021/11/18 11:16:49;;;;;;;14.10;8.10;;;;;;;;;;5032389;28;20030;-77
2021/11/18 11:19:20;;;;;;;15.75;8.75;;;;;;;;;;5043290;28;20521;-76
2021/11/18 11:21:56;;;;;;;12.85;8.00;;;;;;;;;;5037776;28;20041;-76
2021/11/18 11:24:22;;;;;;;13.30;7.03;;;;;;;;;;5037471;28;20138;-77
2021/11/18 11:27:04;;;;;;;13.00;7.40;;;;;;;;;;5038766;28;20127;-76
2021/11/18 11:29:30;;;;;;;12.23;7.53;;;;;;;;;;5038543;28;20041;-76
2021/11/18 11:32:05;;;;;;;15.60;8.90;;;;;;;;;;5039976;28;20454;-76
2021/11/18 11:34:50;;;;;;;14.85;8.73;;;;;;;;;;5039327;28;20033;-77
2021/11/18 11:37:16;;;;;;;13.63;8.18;;;;;;;;;;5039135;28;20029;-77
2021/11/18 11:40:04;;;;;;;15.05;7.70;;;;;;;;;;5038983;28;20051;-76
2021/11/18 11:42:33;;;;;;;13.98;9.10;;;;;;;;;;5039268;28;20071;-77
2021/11/18 11:45:04;;;;;;;16.02;8.82;;;;;;;;;;5038360;28;20037;-77
2021/11/18 11:47:33;;;;;;;14.07;7.57;;;;;;;;;;5030357;28;20039;-77
2021/11/18 11:50:02;;;;;;;16.13;9.15;;;;;;;;;;5038151;28;20081;-76
2021/11/18 11:52:37;;;;;;;16.70;10.52;;;;;;;;;;5035226;28;20067;-76
2021/11/18 11:55:22;;;;;;;13.23;8.63;;;;;;;;;;5043426;28;20037;-77
2021/11/18 11:57:49;;;;;;;13.43;8.55;;;;;;;;;;5041253;28;20068;-77
2021/11/18 12:00:18;;;;;;;14.52;8.05;;;;;;;;;;5044435;28;20052;-76
2021/11/18 12:02:47;;;;;;;12.98;7.97;;;;;;;;;;5032173;28;20548;-77
2021/11/18 12:05:15;;;;;;;14.77;8.68;;;;;;;;;;5025283;28;20041;-76
2021/11/18 12:07:48;;;;;;;16.25;9.63;;;;;;;;;;5028357;28;20053;-76
2021/11/18 12:10:26;;;;;;;18.13;11.30;;;;;;;;;;5034380;28;20356;-77
2021/11/18 12:12:52;;;;;;;14.80;8.93;;;;;;;;;;5028508;28;20045;-77
2021/11/18 12:15:20;;;;;;;14.80;8.73;;;;;;;;;;5028590;28;20033;-76
2021/11/18 12:18:05;;;;;;;18.27;11.50;;;;;;;;;;5048382;28;20033;-76
2021/11/18 12:20:34;;;;;;;22.70;11.07;;;;;;;;;;5031620;28;20080;-77
2021/11/18 12:23:08;;;;;;;18.77;10.70;;;;;;;;;;5028613;28;20041;-76
2021/11/18 12:25:41;;;;;;;19.88;9.23;;;;;;;;;;5039327;28;20108;-76
2021/11/18 12:28:16;;;;;;;15.15;9.18;;;;;;;;;;5009593;28;20778;-76
2021/11/18 12:30:48;;;;;;;13.43;7.20;;;;;;;;;;5035709;28;20029;-76
2021/11/18 12:33:20;;;;;;;11.35;7.15;;;;;;;;;;5037159;28;20035;-76
2021/11/18 12:35:49;;;;;;;12.23;5.63;;;;;;;;;;5040960;28;20052;-76
2021/11/18 12:38:15;;;;;;;11.27;6.53;;;;;;;;;;5033224;28;20037;-76
2021/11/18 12:41:19;;;;;;;10.05;5.97;;;;;;;;;;5032356;28;20072;-76
2021/11/18 12:43:45;;;;;;;9.35;5.10;;;;;;;;;;4974813;28;20042;-76
2021/11/18 12:46:11;;;;;;;10.55;5.45;;;;;;;;;;4985427;28;20042;-76
2021/11/18 12:48:53;;;;;;;8.73;5.97;;;;;;;;;;5010698;28;20049;-77
2021/11/18 12:51:24;;;;;;;11.30;6.30;;;;;;;;;;5035126;28;20060;-77
2021/11/18 12:54:20;;;;;;;14.05;6.65;;;;;;;;;;5032703;28;20042;-76
2021/11/18 12:56:49;;;;;;;10.57;5.97;;;;;;;;;;5032661;28;20052;-77
2021/11/18 12:59:35;;;;;;;13.85;6.93;;;;;;;;;;5040147;28;20152;-76
2021/11/18 13:02:03;;;;;;;18.33;10.45;;;;;;;;;;5030221;28;20111;-76
2021/11/18 13:04:34;;;;;;;13.25;7.57;;;;;;;;;;5032400;28;20041;-77
2021/11/18 13:07:00;;;;;;;12.20;7.10;;;;;;;;;;5042699;28;20092;-77
2021/11/18 13:09:46;;;;;;;15.57;7.05;;;;;;;;;;5032646;28;20065;-76
2021/11/18 13:12:28;;;;;;;9.55;5.18;;;;;;;;;;5025195;28;20029;-77
2021/11/18 13:14:57;;;;;;;10.13;5.88;;;;;;;;;;5043901;28;20542;-76
2021/11/18 13:17:23;;;;;;;8.48;5.25;;;;;;;;;;5025833;28;20498;-77
2021/11/18 13:19:50;;;;;;;9.20;5.03;;;;;;;;;;5023458;28;20057;-76
2021/11/18 13:22:31;;;;;;;10.80;5.03;;;;;;;;;;5032172;28;20032;-76
2021/11/18 13:25:06;;;;;;;11.45;5.15;;;;;;;;;;5019825;28;20433;-76
2021/11/18 13:27:36;;;;;;;11.15;4.95;;;;;;;;;;5033074;28;20033;-76
2021/11/18 13:30:05;;;;;;;7.13;4.18;;;;;;;;;;5031287;28;20037;-76
2021/11/18 13:32:31;;;;;;;7.80;4.57;;;;;;;;;;5019303;28;20022;-76
2021/11/18 13:35:05;;;;;;;9.20;4.35;;;;;;;;;;5042332;28;20046;-76
2021/11/18 13:37:33;;;;;;;10.40;3.85;;;;;;;;;;5013310;28;20108;-77
2021/11/18 13:40:11;;;;;;;10.55;4.53;;;;;;;;;;5031673;28;20479;-77
2021/11/18 13:42:39;;;;;;;7.82;4.10;;;;;;;;;;5011841;28;20029;-77
2021/11/18 13:45:14;;;;;;;11.55;6.53;;;;;;;;;;5032871;28;20096;-76
2021/11/18 13:47:52;;;;;;;9.60;5.70;;;;;;;;;;5031166;28;20029;-76
2021/11/18 13:50:33;;;;;;;7.97;4.75;;;;;;;;;;5029424;28;20419;-76
2021/11/18 13:53:16;;;;;;;8.55;5.07;;;;;;;;;;5031112;28;20033;-76
2021/11/18 13:55:51;;;;;;;8.18;4.80;;;;;;;;;;5031466;28;20112;-76
2021/11/18 13:58:22;;;;;;;6.13;3.50;;;;;;;;;;5031297;28;20041;-76
2021/11/18 14:00:49;;;;;;;5.30;2.70;;;;;;;;;;5031469;28;20037;-77
2021/11/18 14:03:17;;;;;;;7.90;3.67;;;;;;;;;;5030635;28;20120;-76
2021/11/18 14:05:49;;;;;;;5.78;3.17;;;;;;;;;;5030542;28;20104;-76
2021/11/18 14:08:35;;;;;;;5.90;3.30;;;;;;;;;;5030390;28;20045;-76
2021/11/18 14:11:03;;;;;;;5.40;2.90;;;;;;;;;;5031002;28;20037;-76
2021/11/18 14:13:35;;;;;;;5.35;3.00;;;;;;;;;;5046387;28;20064;-76
2021/11/18 14:16:04;;;;;;;10.57;4.05;;;;;;;;;;5047985;28;20107;-76
2021/11/18 14:18:32;;;;;;;5.78;2.60;;;;;;;;;;5040988;28;20068;-76
2021/11/18 14:21:17;;;;;;;5.10;2.20;;;;;;;;;;5040754;28;20041;-77
2021/11/18 14:23:46;;;;;;;5.97;3.28;;;;;;;;;;5039845;28;20112;-77
2021/11/18 14:26:12;;;;;;;4.70;2.58;;;;;;;;;;5015026;28;20036;-76
2021/11/18 14:28:53;;;;;;;5.25;2.75;;;;;;;;;;5032840;28;20056;-77
2021/11/18 14:31:34;;;;;;;5.25;2.58;;;;;;;;;;5028298;28;20030;-76
2021/11/18 14:34:19;;;;;;;5.50;2.42;;;;;;;;;;5047594;28;20509;-77
2021/11/18 14:36:47;;;;;;;4.88;2.60;;;;;;;;;;5044109;28;20039;-76
2021/11/18 14:39:17;;;;;;;5.20;2.58;;;;;;;;;;5035634;28;20036;-76
2021/11/18 14:41:48;;;;;;;5.63;2.22;;;;;;;;;;5031364;28;20677;-76